createdAt,value
2023-04-16T00:01:53.271Z,21.57
2023-04-16T00:04:24.527Z,20.08
2023-04-16T00:06:55.691Z,21.07
2023-04-16T00:09:26.789Z,21.15
2023-04-16T00:11:57.872Z,21.50
2023-04-16T00:14:28.989Z,21.73
2023-04-16T00:17:00.181Z,20.48
2023-04-16T00:19:31.598Z,21.77
2023-04-16T00:22:02.689Z,22.60
2023-04-16T00:24:33.770Z,22.75
2023-04-16T00:27:04.866Z,20.95
2023-04-16T00:29:36.081Z,20.05
2023-04-16T00:32:08.544Z,20.48
2023-04-16T00:34:39.644Z,21.10
2023-04-16T00:37:10.717Z,21.77
2023-04-16T00:39:41.797Z,21.45
2023-04-16T00:42:12.884Z,21.73
2023-04-16T00:44:43.965Z,21.07
2023-04-16T00:47:17.162Z,20.68
2023-04-16T00:49:50.393Z,21.17
2023-04-16T00:52:20.309Z,20.77
2023-04-16T00:54:51.728Z,21.77
2023-04-16T00:57:25.729Z,22.45
2023-04-16T01:00:01.854Z,21.12
2023-04-16T01:02:36.399Z,20.52
2023-04-16T01:05:08.707Z,19.87
2023-04-16T01:07:39.781Z,19.55
2023-04-16T01:10:11.479Z,19.85
2023-04-16T01:12:42.557Z,20.17
2023-04-16T01:15:14.082Z,20.15
2023-04-16T01:17:46.727Z,19.77
2023-04-16T01:20:17.971Z,19.37
2023-04-16T01:22:49.451Z,19.67
2023-04-16T01:25:20.450Z,19.40
2023-04-16T01:27:55.978Z,18.82
2023-04-16T01:30:27.087Z,20.15
2023-04-16T01:32:58.940Z,19.62
2023-04-16T01:35:30.109Z,19.90
2023-04-16T01:38:01.189Z,19.98
2023-04-16T01:40:32.423Z,19.05
2023-04-16T01:43:03.714Z,19.67
2023-04-16T01:45:38.509Z,18.98
2023-04-16T01:48:10.891Z,19.32
2023-04-16T01:50:41.997Z,18.77
2023-04-16T01:53:13.101Z,20.20
2023-04-16T01:55:44.190Z,20.02
2023-04-16T01:58:15.906Z,20.55
2023-04-16T02:00:47.002Z,20.17
2023-04-16T02:03:19.739Z,19.62
2023-04-16T02:05:51.153Z,18.45
2023-04-16T02:08:22.296Z,19.10
2023-04-16T02:10:53.661Z,18.75
2023-04-16T02:13:26.243Z,18.95
2023-04-16T02:15:57.745Z,18.82
2023-04-16T02:18:28.959Z,18.67
2023-04-16T02:21:01.645Z,18.32
2023-04-16T02:23:32.705Z,18.42
2023-04-16T02:26:05.382Z,18.35
2023-04-16T02:28:36.635Z,18.23
2023-04-16T02:31:08.024Z,17.30
2023-04-16T02:33:39.861Z,18.25
2023-04-16T02:36:12.351Z,17.27
2023-04-16T02:38:56.917Z,18.65
2023-04-16T02:44:33.523Z,19.33
2023-04-16T02:47:22.187Z,18.90
2023-04-16T02:49:55.887Z,18.32
2023-04-16T02:52:27.719Z,18.07
2023-04-16T02:55:10.478Z,18.10
2023-04-16T02:57:43.257Z,19.92
2023-04-16T03:00:15.184Z,19.30
2023-04-16T03:02:53.284Z,20.27
2023-04-16T03:05:33.970Z,20.57
2023-04-16T03:08:11.327Z,20.60
2023-04-16T03:10:46.041Z,20.40
2023-04-16T03:13:18.278Z,20.60
2023-04-16T03:15:56.955Z,21.62
2023-04-16T03:18:35.749Z,20.68
2023-04-16T03:23:49.185Z,20.50
2023-04-16T03:29:33.979Z,20.90
2023-04-16T03:32:42.170Z,22.27
2023-04-16T03:35:00.634Z,20.35
2023-04-16T03:40:49.734Z,21.35
2023-04-16T03:43:20.858Z,20.65
2023-04-16T03:45:52.110Z,21.37
2023-04-16T03:48:23.116Z,21.07
2023-04-16T03:50:54.082Z,21.25
2023-04-16T03:53:27.126Z,21.45
2023-04-16T03:55:57.543Z,21.93
2023-04-16T03:58:28.784Z,20.37
2023-04-16T04:01:02.021Z,21.95
2023-04-16T04:03:33.249Z,21.07
2023-04-16T04:06:12.800Z,19.98
2023-04-16T04:08:45.068Z,22.48
2023-04-16T04:11:18.580Z,21.95
2023-04-16T04:13:52.779Z,21.15
2023-04-16T04:16:27.174Z,22.05
2023-04-16T04:18:58.188Z,21.05
2023-04-16T04:21:32.797Z,21.77
2023-04-16T04:26:34.885Z,22.02
2023-04-16T04:29:06.092Z,21.37
2023-04-16T04:31:37.765Z,22.55
2023-04-16T04:34:08.931Z,21.97
2023-04-16T04:36:40.040Z,21.62
2023-04-16T04:39:11.293Z,22.85
2023-04-16T04:41:42.517Z,22.30
2023-04-16T04:44:13.589Z,23.30
2023-04-16T04:46:44.711Z,22.10
2023-04-16T04:49:15.778Z,23.40
2023-04-16T04:51:47.856Z,23.65
2023-04-16T04:54:18.986Z,23.87
2023-04-16T04:56:50.068Z,23.62
2023-04-16T04:59:21.306Z,22.82
2023-04-16T05:01:52.432Z,22.50
2023-04-16T05:04:23.590Z,23.77
2023-04-16T05:06:54.745Z,23.38
2023-04-16T05:09:25.831Z,24.45
2023-04-16T05:11:56.931Z,25.52
2023-04-16T05:14:28.026Z,23.52
2023-04-16T05:16:59.381Z,23.52
2023-04-16T05:19:30.603Z,23.20
2023-04-16T05:22:02.983Z,24.60
2023-04-16T05:24:34.029Z,23.98
2023-04-16T05:27:05.048Z,24.45
2023-04-16T05:29:36.113Z,24.90
2023-04-16T05:32:07.231Z,24.20
2023-04-16T05:34:38.533Z,25.62
2023-04-16T05:37:09.696Z,24.75
2023-04-16T05:39:40.770Z,24.82
2023-04-16T05:42:11.877Z,25.75
2023-04-16T05:44:43.733Z,24.70
2023-04-16T05:47:14.838Z,25.45
2023-04-16T05:49:46.066Z,26.25
2023-04-16T05:52:17.213Z,25.23
2023-04-16T05:54:48.307Z,24.60
2023-04-16T05:57:19.396Z,24.90
2023-04-16T05:59:50.959Z,24.55
2023-04-16T06:02:22.456Z,24.70
2023-04-16T06:04:54.030Z,24.12
2023-04-16T06:07:25.110Z,25.95
2023-04-16T06:09:56.185Z,28.32
2023-04-16T06:12:27.280Z,27.13
2023-04-16T06:14:58.271Z,27.67
2023-04-16T06:17:29.536Z,27.73
2023-04-16T06:20:00.607Z,26.90
2023-04-16T06:22:31.812Z,27.67
2023-04-16T06:25:02.979Z,28.38
2023-04-16T06:27:34.334Z,29.82
2023-04-16T06:30:05.422Z,28.40
2023-04-16T06:32:36.618Z,28.95
2023-04-16T06:35:09.528Z,27.55
2023-04-16T06:37:43.380Z,28.80
2023-04-16T06:40:15.151Z,27.77
2023-04-16T06:42:46.218Z,28.32
2023-04-16T06:45:18.476Z,27.10
2023-04-16T06:47:49.667Z,28.75
2023-04-16T06:50:20.826Z,29.00
2023-04-16T06:52:51.884Z,27.98
2023-04-16T06:55:22.988Z,28.45
2023-04-16T06:57:54.089Z,28.20
2023-04-16T07:00:25.173Z,28.20
2023-04-16T07:02:58.384Z,28.32
2023-04-16T07:05:28.681Z,27.65
2023-04-16T07:07:59.842Z,27.58
2023-04-16T07:10:30.915Z,28.90
2023-04-16T07:13:02.693Z,27.22
2023-04-16T07:15:33.689Z,30.72
2023-04-16T07:18:04.859Z,29.07
2023-04-16T07:20:37.352Z,28.52
2023-04-16T07:23:08.540Z,29.05
2023-04-16T07:25:39.961Z,28.25
2023-04-16T07:28:11.140Z,27.70
2023-04-16T07:30:42.490Z,26.57
2023-04-16T07:33:13.586Z,27.65
2023-04-16T07:35:44.684Z,27.40
2023-04-16T07:38:16.114Z,27.42
2023-04-16T07:40:47.431Z,27.42
2023-04-16T07:43:18.956Z,27.75
2023-04-16T07:45:49.925Z,26.45
2023-04-16T07:48:21.114Z,25.97
2023-04-16T07:51:11.123Z,26.00
2023-04-16T07:53:54.740Z,26.42
2023-04-16T07:56:28.646Z,27.73
2023-04-16T07:59:07.959Z,27.87
2023-04-16T08:01:35.115Z,28.05
2023-04-16T08:04:09.495Z,27.85
2023-04-16T08:06:40.697Z,27.45
2023-04-16T08:09:13.488Z,29.52
2023-04-16T08:11:46.665Z,27.30
2023-04-16T08:14:18.006Z,28.02
2023-04-16T08:16:48.730Z,27.77
2023-04-16T08:19:19.465Z,28.25
2023-04-16T08:21:50.356Z,26.60
2023-04-16T08:24:21.110Z,27.62
2023-04-16T08:26:51.965Z,26.35
2023-04-16T08:29:27.634Z,27.58
2023-04-16T08:32:02.288Z,26.65
2023-04-16T08:34:36.017Z,26.75
2023-04-16T08:37:07.102Z,28.52
2023-04-16T08:39:41.396Z,26.97
2023-04-16T09:05:09.235Z,26.20
2023-04-16T09:08:44.014Z,26.45
2023-04-16T09:11:15.575Z,26.77
2023-04-16T09:13:34.076Z,26.68
2023-04-16T09:35:43.947Z,26.45
2023-04-16T09:38:15.101Z,26.57
2023-04-16T09:40:46.347Z,26.70
2023-04-16T09:43:25.669Z,26.85
2023-04-16T09:45:55.367Z,27.60
2023-04-16T09:48:46.790Z,26.20
2023-04-16T10:02:15.400Z,25.68
2023-04-16T10:03:48.357Z,25.85
2023-04-16T10:06:23.064Z,26.45
2023-04-16T10:08:57.398Z,27.55
2023-04-16T10:11:54.213Z,25.82
2023-04-16T10:14:26.612Z,25.55
2023-04-16T10:17:01.652Z,24.63
2023-04-16T10:19:45.954Z,23.90
2023-04-16T10:22:20.669Z,24.50
2023-04-16T10:24:55.510Z,24.70
2023-04-16T10:27:28.188Z,25.02
2023-04-16T10:30:02.790Z,24.07
2023-04-16T10:32:43.620Z,24.55
2023-04-16T10:35:27.883Z,24.60
2023-04-16T10:38:03.620Z,24.98
2023-04-16T10:40:34.784Z,26.00
2023-04-16T10:43:10.131Z,27.70
2023-04-16T10:45:56.145Z,29.42
2023-04-16T10:51:05.942Z,29.70
2023-04-16T10:53:38.217Z,29.00
2023-04-16T10:56:14.113Z,29.10
2023-04-16T10:58:51.316Z,29.00
2023-04-16T11:02:57.403Z,29.32
2023-04-16T11:10:47.409Z,29.77
2023-04-16T11:13:19.732Z,29.87
2023-04-16T11:15:51.991Z,30.32
2023-04-16T11:22:12.126Z,29.10
2023-04-16T11:27:43.528Z,29.50
2023-04-16T11:31:13.346Z,30.68
2023-04-16T11:34:01.347Z,29.40
2023-04-16T11:36:12.520Z,30.32
2023-04-16T11:46:26.740Z,28.40
2023-04-16T11:49:00.016Z,29.12
2023-04-16T11:51:38.139Z,29.25
2023-04-16T11:55:03.817Z,30.12
2023-04-16T12:00:34.690Z,29.77
2023-04-16T12:03:08.109Z,30.15
2023-04-16T12:05:42.919Z,30.00
2023-04-16T12:08:14.865Z,30.10
2023-04-16T12:10:59.318Z,28.52
2023-04-16T12:13:32.403Z,29.65
2023-04-16T12:16:05.662Z,31.05
2023-04-16T12:18:39.815Z,29.23
2023-04-16T12:21:12.081Z,29.48
2023-04-16T12:23:43.696Z,27.87
2023-04-16T12:26:18.661Z,27.50
2023-04-16T12:29:10.349Z,28.62
2023-04-16T12:31:45.429Z,29.73
2023-04-16T12:34:21.035Z,30.48
2023-04-16T12:36:54.605Z,28.93
2023-04-16T12:39:29.035Z,28.67
2023-04-16T12:42:00.132Z,29.63
2023-04-16T12:44:31.519Z,28.77
2023-04-16T12:47:02.439Z,30.15
2023-04-16T12:49:35.031Z,29.87
2023-04-16T12:52:06.318Z,28.85
2023-04-16T12:54:40.679Z,28.57
2023-04-16T12:57:15.294Z,28.10
2023-04-16T12:59:46.228Z,29.30
2023-04-16T13:02:40.914Z,31.65
2023-04-16T13:04:57.592Z,31.75
2023-04-16T13:07:58.534Z,31.45
2023-04-16T13:10:06.688Z,32.25
2023-04-16T13:12:40.482Z,32.17
2023-04-16T13:17:56.075Z,34.53
2023-04-16T13:20:27.228Z,34.53
2023-04-16T13:22:58.352Z,34.83
2023-04-16T13:25:30.823Z,35.80
2023-04-16T13:28:04.659Z,35.35
2023-04-16T13:30:36.756Z,36.95
2023-04-16T13:33:16.945Z,36.33
2023-04-16T13:35:49.216Z,35.80
2023-04-16T13:38:20.636Z,34.83
2023-04-16T13:40:52.955Z,37.45
2023-04-16T13:43:24.999Z,38.40
2023-04-16T13:45:58.957Z,38.53
2023-04-16T13:48:31.776Z,37.65
2023-04-16T13:51:34.398Z,38.95
2023-04-16T13:54:07.607Z,37.95
2023-04-16T14:00:03.941Z,36.35
2023-04-16T14:01:13.621Z,36.80
2023-04-16T14:02:41.929Z,35.60
2023-04-16T14:05:14.449Z,34.78
2023-04-16T14:07:45.386Z,34.40
2023-04-16T14:10:16.726Z,33.38
2023-04-16T14:12:49.590Z,32.85
2023-04-16T14:16:01.140Z,32.98
2023-04-16T14:18:28.873Z,31.45
2023-04-16T14:21:12.374Z,31.87
2023-04-16T14:24:01.752Z,33.10
2023-04-16T14:26:20.119Z,32.60
2023-04-16T14:28:51.114Z,32.60
2023-04-16T14:31:22.069Z,31.87
2023-04-16T14:33:52.884Z,30.82
2023-04-16T14:36:23.637Z,30.72
2023-04-16T14:38:54.341Z,33.60
2023-04-16T14:41:25.171Z,31.02
2023-04-16T14:43:55.920Z,31.68
2023-04-16T14:46:28.175Z,32.45
2023-04-16T14:48:58.921Z,31.93
2023-04-16T14:51:29.751Z,31.30
2023-04-16T14:54:00.815Z,30.17
2023-04-16T14:56:31.794Z,32.03
2023-04-16T14:59:02.625Z,31.55
2023-04-16T15:01:37.280Z,30.55
2023-04-16T15:04:12.759Z,30.90
2023-04-16T15:07:11.591Z,30.72
2023-04-16T15:09:42.425Z,30.97
2023-04-16T15:12:14.475Z,31.17
2023-04-16T15:14:45.577Z,28.92
2023-04-16T15:17:16.517Z,30.50
2023-04-16T15:19:47.414Z,30.02
2023-04-16T15:22:18.182Z,29.87
2023-04-16T15:24:48.955Z,30.75
2023-04-16T15:27:21.606Z,28.60
2023-04-16T15:29:52.364Z,30.25
2023-04-16T15:32:23.259Z,29.18
2023-04-16T15:34:54.062Z,30.20
2023-04-16T15:37:24.799Z,29.42
2023-04-16T15:39:55.538Z,29.27
2023-04-16T15:42:29.497Z,30.52
2023-04-16T15:45:00.462Z,30.17
2023-04-16T15:47:31.269Z,29.92
2023-04-16T15:50:02.158Z,31.65
2023-04-16T15:52:33.319Z,30.95
2023-04-16T15:55:06.613Z,30.50
2023-04-16T15:57:37.446Z,29.75
2023-04-16T16:00:12.514Z,31.17
2023-04-16T16:02:44.673Z,30.20
2023-04-16T16:05:18.974Z,31.65
2023-04-16T16:07:49.925Z,30.30
2023-04-16T16:10:21.570Z,30.85
2023-04-16T16:12:52.426Z,31.02
2023-04-16T16:15:27.542Z,30.68
2023-04-16T16:17:59.025Z,30.05
2023-04-16T16:20:29.942Z,29.85
2023-04-16T16:23:00.693Z,29.67
2023-04-16T16:25:32.999Z,29.80
2023-04-16T16:28:06.286Z,29.48
2023-04-16T16:30:37.564Z,29.10
2023-04-16T16:33:08.489Z,27.77
2023-04-16T16:35:39.259Z,28.00
2023-04-16T16:38:11.333Z,27.22
2023-04-16T16:40:50.672Z,27.60
2023-04-16T16:43:21.589Z,28.38
2023-04-16T16:45:55.401Z,27.73
2023-04-16T16:48:27.552Z,29.12
2023-04-16T16:50:58.598Z,30.60
2023-04-16T16:53:29.850Z,31.80
2023-04-16T16:56:00.753Z,30.35
2023-04-16T16:58:31.731Z,32.10
2023-04-16T17:01:02.748Z,31.17
2023-04-16T17:03:33.866Z,30.08
2023-04-16T17:06:04.753Z,29.27
2023-04-16T17:08:35.607Z,28.42
2023-04-16T17:11:09.360Z,28.23
2023-04-16T17:13:40.130Z,28.25
2023-04-16T17:16:11.107Z,28.65
2023-04-16T17:18:41.918Z,27.93
2023-04-16T17:21:16.543Z,27.15
2023-04-16T17:23:47.768Z,26.87
2023-04-16T17:26:18.615Z,26.93
2023-04-16T17:28:49.396Z,27.95
2023-04-16T17:31:20.236Z,27.45
2023-04-16T17:33:52.308Z,27.13
2023-04-16T17:36:24.220Z,26.55
2023-04-16T17:38:55.047Z,26.60
2023-04-16T17:41:26.004Z,26.52
2023-04-16T17:43:56.729Z,26.25
2023-04-16T17:46:28.207Z,26.27
2023-04-16T17:48:59.010Z,25.72
2023-04-16T17:51:29.834Z,26.27
2023-04-16T17:54:00.599Z,26.30
2023-04-16T17:56:31.941Z,26.80
2023-04-16T17:59:02.739Z,27.22
2023-04-16T18:01:33.538Z,26.85
2023-04-16T18:04:04.452Z,25.65
2023-04-16T18:06:35.180Z,27.25
2023-04-16T18:09:06.845Z,26.95
2023-04-16T18:11:38.292Z,26.05
2023-04-16T18:14:10.695Z,25.80
2023-04-16T18:16:41.599Z,25.72
2023-04-16T18:22:29.662Z,25.40
2023-04-16T18:27:42.845Z,26.15
2023-04-16T18:33:04.255Z,25.82
2023-04-16T18:35:18.348Z,25.92
2023-04-16T18:37:49.495Z,25.23
2023-04-16T18:40:20.513Z,26.35
2023-04-16T18:42:51.319Z,25.30
2023-04-16T18:45:22.209Z,25.75
2023-04-16T18:47:53.233Z,26.15
2023-04-16T18:50:24.050Z,25.97
2023-04-16T18:52:55.299Z,25.90
2023-04-16T18:55:26.064Z,25.97
2023-04-16T18:57:57.152Z,25.60
2023-04-16T19:00:27.979Z,25.37
2023-04-16T19:02:59.209Z,25.90
2023-04-16T19:05:30.400Z,25.65
2023-04-16T19:08:01.382Z,26.45
2023-04-16T19:10:32.495Z,25.45
2023-04-16T19:13:03.594Z,25.97
2023-04-16T19:15:34.989Z,25.23
2023-04-16T19:18:06.260Z,26.87
2023-04-16T19:20:40.712Z,26.07
2023-04-16T19:23:11.739Z,26.30
2023-04-16T19:25:42.933Z,25.00
2023-04-16T19:28:14.078Z,26.17
2023-04-16T19:30:47.804Z,25.45
2023-04-16T19:33:19.123Z,27.17
2023-04-16T19:35:50.641Z,26.65
2023-04-16T19:38:21.686Z,27.10
2023-04-16T19:40:52.936Z,27.30
2023-04-16T19:43:24.099Z,26.80
2023-04-16T19:45:56.521Z,26.95
2023-04-16T19:48:27.600Z,26.62
2023-04-16T19:50:58.483Z,25.82
2023-04-16T19:53:29.601Z,26.35
2023-04-16T19:56:00.739Z,27.37
2023-04-16T19:58:31.876Z,26.73
2023-04-16T20:01:03.010Z,27.62
2023-04-16T20:03:34.236Z,28.52
2023-04-16T20:06:06.665Z,29.10
2023-04-16T20:08:37.702Z,27.27
2023-04-16T20:11:09.689Z,29.10
2023-04-16T20:13:40.810Z,28.65
2023-04-16T20:16:13.363Z,29.05
2023-04-16T20:18:44.518Z,28.20
2023-04-16T20:21:16.780Z,28.35
2023-04-16T20:23:47.928Z,28.17
2023-04-16T20:26:22.081Z,30.85
2023-04-16T20:28:53.231Z,30.82
2023-04-16T20:31:24.308Z,30.23
2023-04-16T20:33:55.551Z,28.52
2023-04-16T20:36:27.189Z,30.23
2023-04-16T20:38:58.374Z,30.65
2023-04-16T20:41:30.747Z,30.15
2023-04-16T20:44:03.006Z,29.40
2023-04-16T20:46:35.450Z,30.02
2023-04-16T20:49:07.822Z,31.00
2023-04-16T20:51:38.848Z,30.12
2023-04-16T20:54:11.368Z,29.57
2023-04-16T20:56:42.767Z,30.23
2023-04-16T20:59:14.544Z,30.48
2023-04-16T21:01:45.952Z,29.48
2023-04-16T21:04:17.333Z,30.57
2023-04-16T21:06:48.584Z,30.62
2023-04-16T21:09:19.674Z,29.50
2023-04-16T21:11:50.778Z,30.37
2023-04-16T21:14:21.966Z,29.90
2023-04-16T21:16:53.151Z,29.20
2023-04-16T21:19:24.347Z,30.20
2023-04-16T21:21:56.644Z,30.35
2023-04-16T21:24:27.884Z,29.40
2023-04-16T21:26:58.944Z,29.55
2023-04-16T21:29:30.102Z,29.10
2023-04-16T21:32:01.261Z,29.10
2023-04-16T21:34:32.375Z,28.10
2023-04-16T21:37:03.546Z,26.05
2023-04-16T21:39:34.636Z,28.17
2023-04-16T21:42:05.729Z,27.10
2023-04-16T21:44:36.900Z,26.62
2023-04-16T21:47:08.030Z,29.00
2023-04-16T21:49:39.198Z,26.75
2023-04-16T21:52:11.682Z,26.55
2023-04-16T21:54:42.785Z,26.82
2023-04-16T21:57:14.197Z,26.52
2023-04-16T22:02:31.370Z,26.00
2023-04-16T22:05:02.707Z,27.10
2023-04-16T22:07:33.801Z,26.15
2023-04-16T22:10:05.224Z,27.82
2023-04-16T22:12:37.703Z,26.25
2023-04-16T22:15:12.877Z,26.52
2023-04-16T22:17:44.059Z,26.23
2023-04-16T22:20:15.461Z,26.62
2023-04-16T22:22:46.857Z,27.75
2023-04-16T22:25:17.956Z,26.65
2023-04-16T22:27:49.140Z,26.68
2023-04-16T22:30:20.356Z,27.62
2023-04-16T22:32:51.530Z,27.62
2023-04-16T22:35:22.625Z,26.93
2023-04-16T22:37:53.723Z,27.62
2023-04-16T22:40:24.837Z,27.87
2023-04-16T22:42:55.950Z,27.85
2023-04-16T22:45:27.261Z,27.55
2023-04-16T22:47:58.405Z,27.55
2023-04-16T22:50:29.726Z,25.57
2023-04-16T22:53:00.871Z,27.65
2023-04-16T22:55:31.958Z,27.58
2023-04-16T22:58:05.744Z,28.35
2023-04-16T23:00:43.679Z,27.27
2023-04-16T23:03:15.256Z,27.42
2023-04-16T23:05:50.925Z,29.02
2023-04-16T23:08:30.563Z,26.77
2023-04-16T23:11:20.471Z,27.45
2023-04-16T23:14:02.332Z,27.17
2023-04-16T23:16:33.030Z,27.85
2023-04-16T23:19:04.092Z,28.07
2023-04-16T23:21:35.316Z,27.48
2023-04-16T23:24:06.692Z,27.82
2023-04-16T23:26:37.842Z,27.98
2023-04-16T23:29:08.976Z,28.27
2023-04-16T23:31:40.187Z,28.02
2023-04-16T23:34:11.414Z,27.98
2023-04-16T23:36:42.517Z,27.30
2023-04-16T23:39:13.828Z,27.90
2023-04-16T23:41:48.207Z,26.45
2023-04-16T23:44:23.274Z,27.93
2023-04-16T23:46:54.455Z,27.02
2023-04-16T23:49:25.574Z,27.10
2023-04-16T23:55:25.295Z,28.50
